Time;durP1;ratioP1;P1;durP2;ratioP2;P2;SDS_P1;SDS_P2;PMS_P1;PMS_P2;Temp;Humidity;BMP_temperature;BMP_pressure;BME280_temperature;BME280_humidity;BME280_pressure;Samples;Min_cycle;Max_cycle;Signal;HPM_P1;HPM_P2
2023/10/27 00:00:57;;;;;;;24.65;15.32;;;11.50;91.60;;;;;;5035325;28;20413;-34
2023/10/27 00:03:23;;;;;;;25.80;16.67;;;11.50;91.60;;;;;;5035643;28;20107;-29
2023/10/27 00:05:49;;;;;;;22.33;14.85;;;11.50;91.60;;;;;;5035367;28;20036;-28
2023/10/27 00:08:14;;;;;;;25.83;16.05;;;11.50;91.60;;;;;;5035245;28;20018;-31
2023/10/27 00:10:40;;;;;;;26.25;16.77;;;11.50;91.60;;;;;;5035447;28;20021;-28
2023/10/27 00:13:05;;;;;;;27.45;17.23;;;11.50;91.60;;;;;;5035396;28;20025;-29
2023/10/27 00:15:31;;;;;;;25.90;16.08;;;11.50;91.60;;;;;;5034148;28;20032;-29
2023/10/27 00:17:58;;;;;;;28.48;17.42;;;11.50;91.60;;;;;;5034906;28;20034;-28
2023/10/27 00:20:24;;;;;;;27.95;16.48;;;11.50;91.60;;;;;;5034840;28;20040;-33
2023/10/27 00:22:49;;;;;;;27.80;17.23;;;11.50;91.60;;;;;;5035095;28;20037;-29
2023/10/27 00:25:15;;;;;;;30.20;16.38;;;11.50;91.60;;;;;;5035095;28;20106;-27
2023/10/27 00:27:41;;;;;;;28.25;17.20;;;11.50;91.60;;;;;;5034936;28;20129;-29
2023/10/27 00:30:08;;;;;;;28.75;16.95;;;11.50;91.60;;;;;;5034421;28;20569;-34
2023/10/27 00:32:33;;;;;;;30.88;17.65;;;11.60;91.60;;;;;;5035131;28;20048;-27
2023/10/27 00:34:59;;;;;;;29.52;17.95;;;11.50;91.60;;;;;;5034763;28;20022;-28
2023/10/27 00:37:24;;;;;;;31.20;17.40;;;11.50;91.70;;;;;;5034965;28;20064;-27
2023/10/27 00:39:50;;;;;;;29.08;17.38;;;11.50;91.70;;;;;;5034759;28;20037;-32
2023/10/27 00:42:15;;;;;;;31.08;17.70;;;11.50;91.70;;;;;;5034673;28;20482;-31
2023/10/27 00:44:41;;;;;;;28.75;17.08;;;11.60;91.70;;;;;;5034731;28;20643;-29
2023/10/27 00:47:08;;;;;;;34.22;18.20;;;11.60;91.70;;;;;;5034604;28;20077;-29
2023/10/27 00:49:35;;;;;;;31.65;18.40;;;11.60;91.70;;;;;;5034418;28;20080;-31
2023/10/27 00:52:00;;;;;;;28.42;17.25;;;11.60;91.70;;;;;;5034460;28;20021;-28
2023/10/27 00:54:27;;;;;;;29.90;17.67;;;11.60;91.70;;;;;;5033148;28;20022;-29
2023/10/27 00:56:55;;;;;;;35.53;19.00;;;11.60;91.70;;;;;;5034464;28;20017;-29
2023/10/27 00:59:20;;;;;;;32.50;18.25;;;11.60;91.70;;;;;;5034362;28;20075;-27
2023/10/27 01:01:46;;;;;;;35.97;18.83;;;11.60;91.60;;;;;;5033189;28;20029;-29
2023/10/27 01:04:11;;;;;;;30.98;17.55;;;11.60;91.70;;;;;;5033852;28;20052;-27
2023/10/27 01:06:37;;;;;;;34.25;18.80;;;11.60;91.70;;;;;;5034014;28;20029;-29
2023/10/27 01:09:03;;;;;;;37.75;18.33;;;11.60;91.70;;;;;;5034046;28;20044;-30
2023/10/27 01:11:28;;;;;;;33.22;18.80;;;11.60;91.70;;;;;;5033884;28;20041;-37
2023/10/27 01:13:55;;;;;;;35.03;19.63;;;11.60;91.70;;;;;;5034305;28;20021;-30
2023/10/27 01:16:21;;;;;;;28.88;18.15;;;11.60;91.70;;;;;;5033745;28;20018;-27
2023/10/27 01:18:47;;;;;;;35.75;19.75;;;11.60;91.80;;;;;;5033852;28;20036;-28
2023/10/27 01:21:12;;;;;;;42.05;20.17;;;11.60;91.80;;;;;;5032858;28;20481;-27
2023/10/27 01:23:38;;;;;;;33.65;18.15;;;11.50;91.70;;;;;;5034503;28;20025;-29
2023/10/27 01:26:04;;;;;;;34.80;18.63;;;11.60;91.80;;;;;;5034308;28;20027;-29
2023/10/27 01:28:31;;;;;;;31.85;18.27;;;11.60;91.80;;;;;;5034329;28;20477;-28
2023/10/27 01:30:56;;;;;;;36.28;18.70;;;11.60;91.80;;;;;;5034094;28;20025;-28
2023/10/27 01:33:23;;;;;;;36.25;18.33;;;11.60;91.80;;;;;;5034232;28;20559;-28
2023/10/27 01:35:50;;;;;;;32.33;17.95;;;11.50;91.80;;;;;;5034156;28;20029;-28
2023/10/27 01:38:16;;;;;;;34.20;18.92;;;11.60;91.90;;;;;;5034180;28;20105;-28
2023/10/27 01:40:41;;;;;;;33.47;19.02;;;11.60;91.90;;;;;;5034328;28;20513;-27
2023/10/27 01:43:07;;;;;;;32.83;19.27;;;11.60;91.90;;;;;;5034130;28;20029;-29
2023/10/27 01:45:32;;;;;;;31.90;18.33;;;11.60;91.90;;;;;;5032840;28;20029;-32
2023/10/27 01:47:58;;;;;;;33.58;17.83;;;11.60;91.90;;;;;;5033811;28;20111;-28
2023/10/27 01:50:23;;;;;;;31.88;18.10;;;11.60;91.90;;;;;;5034143;28;20109;-30
2023/10/27 01:52:49;;;;;;;35.50;18.40;;;11.60;91.90;;;;;;5032563;28;20508;-32
2023/10/27 01:55:14;;;;;;;30.05;17.58;;;11.60;91.90;;;;;;5033713;28;20026;-28
2023/10/27 01:57:40;;;;;;;31.90;18.67;;;11.60;91.90;;;;;;5033893;28;20071;-31
2023/10/27 02:00:07;;;;;;;32.10;18.90;;;11.60;91.90;;;;;;5033613;28;20030;-30
2023/10/27 02:02:34;;;;;;;33.38;18.80;;;11.60;91.90;;;;;;5033968;28;20060;-31
2023/10/27 02:05:01;;;;;;;35.38;18.67;;;11.60;91.90;;;;;;5033798;28;20097;-31
2023/10/27 02:07:27;;;;;;;35.83;19.35;;;11.60;91.90;;;;;;5033868;28;20033;-29
2023/10/27 02:09:52;;;;;;;34.53;19.20;;;11.60;91.90;;;;;;5033723;28;20040;-30
2023/10/27 02:12:18;;;;;;;33.47;18.45;;;11.60;91.90;;;;;;5033580;28;20428;-31
2023/10/27 02:14:43;;;;;;;35.45;18.50;;;11.60;92.00;;;;;;5032716;28;20028;-31
2023/10/27 02:17:11;;;;;;;32.83;17.88;;;11.60;92.00;;;;;;5033311;28;20381;-30
2023/10/27 02:19:37;;;;;;;34.47;18.90;;;11.70;92.00;;;;;;5032140;28;20478;-30
2023/10/27 02:22:02;;;;;;;33.67;19.23;;;11.60;92.00;;;;;;5033815;28;20022;-31
2023/10/27 02:24:28;;;;;;;32.45;18.23;;;11.70;92.00;;;;;;5033308;28;20021;-34
2023/10/27 02:26:54;;;;;;;34.45;18.02;;;11.70;92.00;;;;;;5033398;28;20030;-33
2023/10/27 02:29:20;;;;;;;30.40;17.60;;;11.70;92.00;;;;;;5032951;28;20493;-27
2023/10/27 02:31:45;;;;;;;32.08;18.15;;;11.70;92.00;;;;;;5033384;28;20041;-29
2023/10/27 02:34:11;;;;;;;35.38;19.48;;;11.70;92.00;;;;;;5033211;28;20536;-27
2023/10/27 02:36:37;;;;;;;33.13;18.50;;;11.70;92.00;;;;;;5033173;28;20371;-28
2023/10/27 02:39:02;;;;;;;32.45;17.58;;;11.70;92.00;;;;;;5033455;28;20032;-27
2023/10/27 02:41:28;;;;;;;30.05;16.75;;;11.70;92.00;;;;;;5032874;28;20030;-28
2023/10/27 02:43:54;;;;;;;28.50;17.58;;;11.60;92.00;;;;;;5032988;28;20100;-30
2023/10/27 02:46:19;;;;;;;27.98;16.60;;;11.60;92.10;;;;;;5032648;28;20035;-29
2023/10/27 02:48:45;;;;;;;28.25;16.63;;;11.60;92.10;;;;;;5033094;28;20114;-28
2023/10/27 02:51:12;;;;;;;29.38;16.75;;;11.60;92.10;;;;;;5032723;28;20021;-27
2023/10/27 02:53:37;;;;;;;26.40;16.05;;;11.60;92.10;;;;;;5032823;28;20032;-27
2023/10/27 02:56:09;;;;;;;26.30;16.40;;;11.60;92.10;;;;;;5032759;28;20458;-27
2023/10/27 02:58:36;;;;;;;27.65;16.10;;;11.60;92.20;;;;;;5032791;28;20125;-33
2023/10/27 03:01:09;;;;;;;26.60;15.75;;;11.60;92.20;;;;;;5032772;28;20017;-27
2023/10/27 03:03:36;;;;;;;24.40;15.18;;;11.60;92.20;;;;;;5032822;28;20065;-28
2023/10/27 03:06:02;;;;;;;27.95;15.82;;;11.60;92.20;;;;;;5032890;28;20429;-29
2023/10/27 03:08:28;;;;;;;25.67;15.60;;;11.60;92.20;;;;;;5032705;28;20068;-26
2023/10/27 03:10:53;;;;;;;23.42;14.88;;;11.60;92.20;;;;;;5032359;28;20029;-27
2023/10/27 03:13:19;;;;;;;25.40;15.00;;;11.60;92.20;;;;;;5032558;28;20025;-27
2023/10/27 03:15:46;;;;;;;23.85;14.13;;;11.60;92.20;;;;;;5032406;28;20017;-26
2023/10/27 03:18:12;;;;;;;23.52;14.00;;;11.60;92.20;;;;;;5032696;28;20040;-30
2023/10/27 03:20:37;;;;;;;24.90;14.88;;;11.60;92.20;;;;;;5030785;28;20112;-30
2023/10/27 03:23:03;;;;;;;25.98;14.73;;;11.60;92.20;;;;;;5032532;28;20041;-28
2023/10/27 03:25:28;;;;;;;24.13;15.27;;;11.60;92.20;;;;;;5032162;28;20026;-28
2023/10/27 03:27:54;;;;;;;27.08;15.13;;;11.60;92.20;;;;;;5032638;28;20021;-30
2023/10/27 03:30:19;;;;;;;26.77;15.48;;;11.60;92.20;;;;;;5031768;28;20048;-28
2023/10/27 03:32:46;;;;;;;25.52;14.50;;;11.60;92.30;;;;;;5032579;28;20405;-29
2023/10/27 03:35:11;;;;;;;24.73;14.77;;;11.60;92.30;;;;;;5032508;28;20029;-27
2023/10/27 03:37:37;;;;;;;26.08;15.45;;;11.70;92.30;;;;;;5032364;28;20026;-27
2023/10/27 03:40:04;;;;;;;26.00;15.02;;;11.70;92.30;;;;;;5032341;28;20033;-26
2023/10/27 03:42:30;;;;;;;27.55;14.90;;;11.70;92.30;;;;;;5032141;28;20028;-28
2023/10/27 03:44:55;;;;;;;26.83;14.82;;;11.70;92.30;;;;;;5032124;28;20017;-30
2023/10/27 03:47:21;;;;;;;27.33;15.60;;;11.70;92.30;;;;;;5031933;28;20069;-29
2023/10/27 03:49:46;;;;;;;24.83;14.95;;;11.60;92.30;;;;;;5032096;28;20057;-28
2023/10/27 03:52:12;;;;;;;29.10;15.50;;;11.60;92.30;;;;;;5032035;28;20026;-26
2023/10/27 03:54:37;;;;;;;25.65;14.57;;;11.60;92.30;;;;;;5031921;28;20026;-32
2023/10/27 03:57:03;;;;;;;26.40;15.73;;;11.60;92.30;;;;;;5031882;28;20101;-28
2023/10/27 03:59:29;;;;;;;29.02;15.27;;;11.60;92.30;;;;;;5032201;28;20025;-31
2023/10/27 04:01:54;;;;;;;23.58;13.30;;;11.60;92.40;;;;;;5032115;28;20454;-30
2023/10/27 04:04:20;;;;;;;23.83;13.73;;;11.60;92.40;;;;;;5032172;28;20029;-27
2023/10/27 04:06:46;;;;;;;23.40;14.00;;;11.60;92.40;;;;;;5032013;28;20018;-28
2023/10/27 04:09:12;;;;;;;20.88;12.30;;;11.60;92.40;;;;;;5032003;28;20474;-28
2023/10/27 04:11:37;;;;;;;19.95;12.23;;;11.60;92.40;;;;;;5031979;28;20026;-30
2023/10/27 04:14:04;;;;;;;18.98;11.45;;;11.60;92.40;;;;;;5032279;28;20048;-26
2023/10/27 04:16:30;;;;;;;20.52;11.90;;;11.60;92.40;;;;;;5031661;28;20030;-30
2023/10/27 04:18:56;;;;;;;18.33;11.50;;;11.60;92.50;;;;;;5031612;28;20068;-29
2023/10/27 04:21:22;;;;;;;18.25;10.95;;;11.60;92.50;;;;;;5031286;28;20036;-29
2023/10/27 04:23:47;;;;;;;17.75;10.55;;;11.50;92.50;;;;;;5032184;28;20025;-28
2023/10/27 04:26:15;;;;;;;15.82;10.43;;;11.50;92.50;;;;;;5031818;28;20032;-27
2023/10/27 04:28:41;;;;;;;15.73;10.48;;;11.60;92.50;;;;;;5031543;28;20041;-27
2023/10/27 04:31:07;;;;;;;15.95;9.38;;;11.50;92.50;;;;;;5031794;28;20021;-28
2023/10/27 04:33:36;;;;;;;16.27;10.13;;;11.60;92.60;;;;;;5032004;28;20172;-27
2023/10/27 04:36:02;;;;;;;17.75;10.82;;;11.60;92.60;;;;;;5031935;28;20474;-27
2023/10/27 04:38:27;;;;;;;17.33;10.27;;;11.60;92.60;;;;;;5035235;28;20028;-27
2023/10/27 04:40:53;;;;;;;15.23;9.60;;;11.60;92.60;;;;;;5035422;28;20638;-26
2023/10/27 04:43:21;;;;;;;15.38;9.43;;;11.50;92.50;;;;;;5035356;28;20462;-27
2023/10/27 04:45:46;;;;;;;17.40;9.98;;;11.50;92.60;;;;;;5035083;28;20109;-28
2023/10/27 04:48:12;;;;;;;15.00;9.52;;;11.50;92.60;;;;;;5034978;28;20053;-30
2023/10/27 04:50:38;;;;;;;15.30;10.02;;;11.50;92.60;;;;;;5035023;28;20029;-30
2023/10/27 04:53:03;;;;;;;13.68;8.82;;;11.50;92.60;;;;;;5035508;28;20027;-27
2023/10/27 04:55:29;;;;;;;16.02;9.45;;;11.60;92.60;;;;;;5035290;28;20072;-30
2023/10/27 04:57:54;;;;;;;14.48;9.45;;;11.50;92.60;;;;;;5034906;28;20056;-27
2023/10/27 05:00:20;;;;;;;14.15;9.00;;;11.50;92.60;;;;;;5034824;28;20522;-28
2023/10/27 05:02:46;;;;;;;13.13;8.35;;;11.50;92.60;;;;;;5035061;28;20447;-28
2023/10/27 05:05:11;;;;;;;14.25;8.82;;;11.50;92.60;;;;;;5034855;28;20032;-31
2023/10/27 05:07:37;;;;;;;13.90;8.48;;;11.50;92.60;;;;;;5034476;28;20075;-26
2023/10/27 05:10:03;;;;;;;11.88;8.15;;;11.50;92.60;;;;;;5034281;28;20026;-28
2023/10/27 05:12:29;;;;;;;11.70;7.90;;;11.50;92.70;;;;;;5034764;28;20025;-32
2023/10/27 05:14:54;;;;;;;11.63;7.80;;;11.40;92.70;;;;;;5034469;28;20029;-28
2023/10/27 05:17:20;;;;;;;11.50;7.97;;;11.40;92.70;;;;;;5034126;28;20059;-28
2023/10/27 05:19:48;;;;;;;10.35;7.20;;;11.40;93.00;;;;;;5034010;28;20052;-27
2023/10/27 05:22:14;;;;;;;11.02;7.85;;;11.40;92.70;;;;;;5034474;28;20458;-27
2023/10/27 05:24:39;;;;;;;14.18;7.90;;;11.40;92.70;;;;;;5034494;28;20053;-29
2023/10/27 05:27:05;;;;;;;10.68;7.13;;;11.50;92.70;;;;;;5034722;28;20462;-28
2023/10/27 05:29:30;;;;;;;11.05;7.03;;;11.40;92.70;;;;;;5034092;28;20055;-28
2023/10/27 05:31:56;;;;;;;9.80;7.25;;;11.40;92.70;;;;;;5034542;28;20412;-32
2023/10/27 05:34:22;;;;;;;12.98;7.95;;;11.40;92.70;;;;;;5034244;28;20446;-33
2023/10/27 05:36:47;;;;;;;10.02;7.30;;;11.40;92.70;;;;;;5034527;28;20104;-29
2023/10/27 05:39:20;;;;;;;12.27;7.63;;;11.50;92.80;;;;;;5034424;28;20025;-26
2023/10/27 05:41:46;;;;;;;10.63;7.23;;;11.50;92.80;;;;;;5034328;28;20049;-31
2023/10/27 05:44:13;;;;;;;12.30;7.50;;;11.50;92.80;;;;;;5033953;28;20021;-26
2023/10/27 05:46:38;;;;;;;9.90;7.32;;;11.50;92.80;;;;;;5032943;28;20373;-30
2023/10/27 05:49:04;;;;;;;13.27;8.30;;;11.50;92.80;;;;;;5034041;28;20024;-28
2023/10/27 05:51:31;;;;;;;10.07;7.25;;;11.50;92.80;;;;;;5034142;28;20049;-27
2023/10/27 05:53:56;;;;;;;8.75;6.57;;;11.50;92.80;;;;;;5033867;28;20041;-28
2023/10/27 05:56:22;;;;;;;10.18;7.45;;;11.50;92.80;;;;;;5033958;28;20032;-27
2023/10/27 05:58:48;;;;;;;10.23;7.05;;;11.50;92.80;;;;;;5034202;28;20010;-28
2023/10/27 06:01:14;;;;;;;10.50;7.38;;;11.50;92.80;;;;;;5032228;28;20033;-28
2023/10/27 06:03:39;;;;;;;10.93;7.63;;;11.50;92.80;;;;;;5033657;28;20017;-28
2023/10/27 06:06:05;;;;;;;10.43;7.25;;;11.50;92.80;;;;;;5033769;28;20176;-29
2023/10/27 06:08:32;;;;;;;11.55;7.80;;;11.50;92.80;;;;;;5033980;28;20029;-27
2023/10/27 06:10:57;;;;;;;11.75;7.50;;;11.50;92.80;;;;;;5033731;28;20040;-29
2023/10/27 06:13:23;;;;;;;10.57;6.95;;;11.50;92.80;;;;;;5033750;28;20025;-28
2023/10/27 06:15:48;;;;;;;10.98;7.10;;;11.50;92.80;;;;;;5033478;28;20025;-29
2023/10/27 06:18:14;;;;;;;20.02;7.70;;;11.50;92.80;;;;;;5033741;28;20022;-29
2023/10/27 06:20:39;;;;;;;14.43;7.20;;;11.50;92.80;;;;;;5033362;28;20025;-30
2023/10/27 06:23:05;;;;;;;10.57;6.65;;;11.40;92.80;;;;;;5033712;28;20168;-26
2023/10/27 06:25:31;;;;;;;37.33;7.97;;;11.50;92.80;;;;;;5033699;28;20076;-29
2023/10/27 06:27:56;;;;;;;9.00;6.47;;;11.40;92.80;;;;;;5033245;28;20083;-31
2023/10/27 06:30:23;;;;;;;9.82;6.45;;;11.40;92.90;;;;;;5032843;28;20091;-29
2023/10/27 06:32:48;;;;;;;8.02;6.00;;;11.50;92.90;;;;;;5033001;28;20024;-28
2023/10/27 06:35:14;;;;;;;8.23;6.07;;;11.40;92.90;;;;;;5032998;28;20033;-28
2023/10/27 06:37:39;;;;;;;7.32;5.88;;;11.40;92.90;;;;;;5033119;28;20056;-31
2023/10/27 06:40:06;;;;;;;8.20;6.00;;;11.40;92.90;;;;;;5032788;28;20060;-27
2023/10/27 06:42:31;;;;;;;8.80;6.60;;;11.40;92.90;;;;;;5033359;28;20101;-28
2023/10/27 06:44:57;;;;;;;8.70;6.32;;;11.40;92.90;;;;;;5033064;28;20144;-28
2023/10/27 06:47:22;;;;;;;8.32;6.43;;;11.40;92.90;;;;;;5032659;28;20025;-26
2023/10/27 06:49:48;;;;;;;8.90;6.10;;;11.40;92.90;;;;;;5032620;28;20028;-28
2023/10/27 06:52:13;;;;;;;8.95;6.78;;;11.40;92.90;;;;;;5032695;28;20029;-31
2023/10/27 06:54:40;;;;;;;10.30;6.82;;;11.40;92.90;;;;;;5032925;28;20022;-28
2023/10/27 06:57:07;;;;;;;8.23;6.60;;;11.40;93.00;;;;;;5033079;28;20397;-29
2023/10/27 06:59:33;;;;;;;8.93;6.57;;;11.40;93.00;;;;;;5032604;28;20116;-27
2023/10/27 07:01:58;;;;;;;10.35;6.53;;;11.40;93.00;;;;;;5033013;28;20113;-30
2023/10/27 07:04:24;;;;;;;9.95;6.43;;;11.50;93.00;;;;;;5032687;28;20430;-28
2023/10/27 07:06:49;;;;;;;9.63;6.82;;;11.50;93.00;;;;;;5032147;28;20421;-28
2023/10/27 07:09:15;;;;;;;10.48;7.00;;;11.50;93.00;;;;;;5032459;28;20036;-30
2023/10/27 07:11:41;;;;;;;9.20;6.85;;;11.50;93.00;;;;;;5032532;28;20033;-27
2023/10/27 07:14:06;;;;;;;9.15;6.60;;;11.50;93.00;;;;;;5032648;28;20047;-32
2023/10/27 07:16:32;;;;;;;9.98;7.00;;;11.50;93.00;;;;;;5031150;28;20047;-29
2023/10/27 07:18:57;;;;;;;10.30;6.95;;;11.50;93.00;;;;;;5030876;28;20415;-27
2023/10/27 07:21:23;;;;;;;11.10;7.18;;;11.50;93.00;;;;;;5032471;28;20040;-28
2023/10/27 07:23:49;;;;;;;9.23;7.13;;;11.60;93.00;;;;;;5032550;28;20492;-28
2023/10/27 07:26:15;;;;;;;9.40;6.95;;;11.50;93.00;;;;;;5032236;28;20665;-31
2023/10/27 07:28:42;;;;;;;9.82;6.97;;;11.50;92.90;;;;;;5032193;28;20045;-29
2023/10/27 07:31:08;;;;;;;10.00;6.97;;;11.50;92.90;;;;;;5032525;28;20056;-28
2023/10/27 07:33:35;;;;;;;9.38;7.07;;;11.50;93.00;;;;;;5032163;28;20026;-28
2023/10/27 07:36:02;;;;;;;9.48;6.78;;;11.50;92.90;;;;;;5032519;28;20108;-28
2023/10/27 07:38:28;;;;;;;13.00;8.32;;;11.50;93.00;;;;;;5032205;28;20017;-28
2023/10/27 07:40:57;;;;;;;11.15;7.63;;;11.50;93.00;;;;;;5030924;28;20030;-27
2023/10/27 07:43:23;;;;;;;10.52;7.80;;;11.50;93.00;;;;;;5032183;28;20060;-28
2023/10/27 07:45:49;;;;;;;9.63;7.20;;;11.50;93.00;;;;;;5030674;28;20057;-28
2023/10/27 07:48:14;;;;;;;9.75;7.35;;;11.50;93.00;;;;;;5032505;28;20108;-31
2023/10/27 07:50:40;;;;;;;10.32;7.20;;;11.50;93.00;;;;;;5031938;28;20029;-30
2023/10/27 07:53:06;;;;;;;9.52;7.32;;;11.50;93.00;;;;;;5032161;28;20029;-28
2023/10/27 07:55:31;;;;;;;9.48;7.13;;;11.50;93.00;;;;;;5032141;28;20017;-32
2023/10/27 07:57:57;;;;;;;10.65;7.65;;;11.50;93.00;;;;;;5032086;28;20037;-31
2023/10/27 08:00:23;;;;;;;9.80;7.50;;;11.60;93.00;;;;;;5031917;28;20034;-29
2023/10/27 08:02:51;;;;;;;10.15;7.25;;;11.60;93.00;;;;;;5031862;28;20033;-29
2023/10/27 08:05:17;;;;;;;11.68;8.02;;;11.60;93.00;;;;;;5031975;28;20032;-27
2023/10/27 08:07:44;;;;;;;9.95;7.10;;;11.60;92.90;;;;;;5030852;28;20026;-27
2023/10/27 08:10:10;;;;;;;11.52;8.38;;;11.70;92.90;;;;;;5031784;28;20107;-28
2023/10/27 08:12:36;;;;;;;10.95;8.30;;;11.60;92.90;;;;;;5034392;28;20036;-28
2023/10/27 08:15:05;;;;;;;10.68;7.70;;;11.70;92.90;;;;;;5035989;28;20014;-28
2023/10/27 08:17:31;;;;;;;10.10;7.53;;;11.70;92.90;;;;;;5035844;28;20581;-28
2023/10/27 08:19:57;;;;;;;10.90;7.97;;;11.70;92.90;;;;;;5035553;28;20045;-27
2023/10/27 08:22:23;;;;;;;11.30;8.18;;;11.80;92.90;;;;;;5035628;28;20520;-27
2023/10/27 08:24:48;;;;;;;11.32;8.18;;;11.80;92.90;;;;;;5035710;28;20053;-32
2023/10/27 08:27:14;;;;;;;9.75;7.50;;;11.70;92.90;;;;;;5035485;28;20057;-26
2023/10/27 08:29:39;;;;;;;10.90;7.85;;;11.80;92.90;;;;;;5035275;28;20037;-29
2023/10/27 08:32:05;;;;;;;37.28;9.35;;;11.70;92.90;;;;;;5035682;28;20091;-29
2023/10/27 08:34:31;;;;;;;23.27;16.15;;;11.80;92.90;;;;;;5035258;28;20059;-30
2023/10/27 08:36:57;;;;;;;17.02;11.13;;;11.80;92.90;;;;;;5035300;28;20083;-26
2023/10/27 08:39:24;;;;;;;14.27;9.90;;;11.80;92.90;;;;;;5035172;28;20026;-28
2023/10/27 08:41:50;;;;;;;12.23;9.25;;;11.90;92.90;;;;;;5035283;28;20535;-27
2023/10/27 08:44:17;;;;;;;12.48;8.45;;;11.80;92.90;;;;;;5033838;28;20032;-30
2023/10/27 08:46:43;;;;;;;14.32;8.70;;;11.90;92.90;;;;;;5035222;28;20116;-28
2023/10/27 08:49:09;;;;;;;11.55;7.85;;;11.80;92.90;;;;;;5034975;28;20025;-29
2023/10/27 08:51:36;;;;;;;10.10;7.88;;;11.90;92.90;;;;;;5035352;28;20032;-28
2023/10/27 08:54:01;;;;;;;10.93;8.15;;;11.90;92.90;;;;;;5035140;28;20037;-28
2023/10/27 08:56:28;;;;;;;9.68;7.32;;;11.90;93.20;;;;;;5035361;28;20021;-29
2023/10/27 08:58:54;;;;;;;11.00;7.75;;;11.80;92.80;;;;;;5035196;28;20040;-30
2023/10/27 09:01:19;;;;;;;10.50;7.68;;;11.90;92.90;;;;;;5034761;28;20017;-30
2023/10/27 09:04:12;;;;;;;9.68;7.25;;;11.90;92.90;;;;;;5035098;28;20469;-27
2023/10/27 09:06:39;;;;;;;11.55;7.70;;;11.80;92.80;;;;;;5035204;28;20021;-32
2023/10/27 09:09:06;;;;;;;10.25;7.18;;;11.80;92.90;;;;;;5035047;28;20022;-29
2023/10/27 09:11:43;;;;;;;9.10;7.53;;;11.90;92.90;;;;;;5034754;28;20385;-29
2023/10/27 09:14:28;;;;;;;9.65;6.82;;;11.80;92.90;;;;;;5034980;28;20473;-31
2023/10/27 09:17:08;;;;;;;8.45;6.70;;;11.90;92.90;;;;;;5034526;28;20044;-30
2023/10/27 09:19:34;;;;;;;8.18;6.38;;;11.80;92.90;;;;;;5034271;28;20017;-30
2023/10/27 09:22:01;;;;;;;8.27;6.68;;;11.90;92.90;;;;;;5034119;28;20022;-28
2023/10/27 09:24:29;;;;;;;9.50;6.43;;;11.90;92.90;;;;;;5034711;28;20083;-28
2023/10/27 09:26:56;;;;;;;8.32;6.70;;;11.90;92.90;;;;;;5034682;28;20433;-29
2023/10/27 09:29:23;;;;;;;7.68;6.45;;;11.90;92.90;;;;;;5034278;28;20037;-29
2023/10/27 09:31:50;;;;;;;7.03;6.32;;;12.00;92.90;;;;;;5034626;28;20021;-28
2023/10/27 09:34:20;;;;;;;6.57;5.88;;;12.00;92.90;;;;;;5033147;28;20014;-28
2023/10/27 09:36:49;;;;;;;6.43;5.57;;;12.00;92.90;;;;;;5034330;28;20108;-29
2023/10/27 09:39:20;;;;;;;7.93;5.88;;;12.00;92.90;;;;;;5034320;28;20378;-30
2023/10/27 09:41:48;;;;;;;7.40;6.15;;;12.10;92.90;;;;;;5034343;28;20025;-30
2023/10/27 09:44:15;;;;;;;7.28;6.00;;;12.00;92.90;;;;;;5034487;28;20028;-28
2023/10/27 09:46:56;;;;;;;7.82;6.30;;;12.10;92.90;;;;;;5034177;28;20021;-30
2023/10/27 09:49:32;;;;;;;7.93;6.50;;;12.00;92.90;;;;;;5033881;28;20067;-32
2023/10/27 09:52:05;;;;;;;7.68;6.38;;;12.10;92.90;;;;;;5034274;28;20407;-32
2023/10/27 09:54:32;;;;;;;10.07;7.00;;;12.10;92.90;;;;;;5034293;28;20354;-30
2023/10/27 09:57:00;;;;;;;8.98;7.03;;;12.10;92.90;;;;;;5033892;28;20391;-32
2023/10/27 09:59:27;;;;;;;8.75;7.22;;;12.10;92.90;;;;;;5034160;28;20025;-29
2023/10/27 10:01:53;;;;;;;8.60;6.97;;;12.10;92.90;;;;;;5033875;28;20477;-29
2023/10/27 10:04:49;;;;;;;9.55;7.55;;;12.10;92.90;;;;;;5034284;28;20100;-29
2023/10/27 10:07:33;;;;;;;9.35;7.57;;;12.10;92.90;;;;;;5033760;28;20029;-31
2023/10/27 10:10:16;;;;;;;9.60;7.40;;;12.00;92.90;;;;;;5033781;28;20429;-34
2023/10/27 10:13:04;;;;;;;8.45;7.15;;;12.10;93.00;;;;;;5034057;28;20450;-32
2023/10/27 10:15:39;;;;;;;9.65;6.90;;;12.10;93.00;;;;;;5034033;28;20575;-38
2023/10/27 10:18:33;;;;;;;8.55;6.88;;;12.10;93.00;;;;;;5033860;28;20048;-34
2023/10/27 10:20:59;;;;;;;7.90;7.05;;;12.10;92.90;;;;;;5040796;28;20065;-31
2023/10/27 10:23:50;;;;;;;8.60;7.10;;;12.20;92.90;;;;;;5033607;28;20080;-29
2023/10/27 10:26:16;;;;;;;7.72;6.47;;;12.20;92.90;;;;;;5033402;28;20030;-28
2023/10/27 10:28:45;;;;;;;7.97;6.70;;;12.20;92.90;;;;;;5033427;28;20048;-28
2023/10/27 10:31:11;;;;;;;7.93;6.78;;;12.20;92.90;;;;;;5033030;28;20044;-29
2023/10/27 10:33:48;;;;;;;7.28;6.55;;;12.30;92.90;;;;;;5033332;28;20093;-36
2023/10/27 10:36:14;;;;;;;7.60;6.57;;;12.30;92.90;;;;;;5033150;28;20025;-30
2023/10/27 10:38:56;;;;;;;6.93;5.97;;;12.30;92.90;;;;;;5033147;28;20021;-29
2023/10/27 10:41:40;;;;;;;7.20;6.20;;;12.30;92.90;;;;;;5033286;28;20531;-31
2023/10/27 10:44:13;;;;;;;8.35;6.47;;;12.30;92.90;;;;;;5033236;28;20056;-32
2023/10/27 10:46:39;;;;;;;6.60;5.90;;;12.30;92.90;;;;;;5033123;28;20072;-30
2023/10/27 10:49:05;;;;;;;7.32;6.32;;;12.30;92.90;;;;;;5033290;28;20378;-30
2023/10/27 10:51:36;;;;;;;8.60;7.15;;;12.30;92.90;;;;;;5033386;28;20084;-32
2023/10/27 10:54:02;;;;;;;7.40;6.40;;;12.30;92.90;;;;;;5033299;28;20018;-36
2023/10/27 10:56:28;;;;;;;7.60;6.78;;;12.40;92.90;;;;;;5032996;28;20022;-32
2023/10/27 10:58:54;;;;;;;7.43;6.53;;;12.30;92.90;;;;;;5032984;28;20083;-29
2023/10/27 11:01:21;;;;;;;8.98;7.40;;;12.40;92.90;;;;;;5032603;28;20018;-29
2023/10/27 11:03:52;;;;;;;7.57;6.78;;;12.40;92.90;;;;;;5033229;28;20028;-30
2023/10/27 11:06:23;;;;;;;9.70;7.85;;;12.40;92.90;;;;;;5032987;28;20524;-29
2023/10/27 11:08:49;;;;;;;9.57;6.93;;;12.50;92.90;;;;;;5032751;28;20022;-30
2023/10/27 11:11:18;;;;;;;8.55;7.45;;;12.50;92.90;;;;;;5032622;28;20025;-28
2023/10/27 11:13:45;;;;;;;7.93;6.93;;;12.60;92.90;;;;;;5033071;28;20025;-27
2023/10/27 11:16:19;;;;;;;7.78;6.63;;;12.60;92.90;;;;;;5032858;28;20017;-30
2023/10/27 11:18:46;;;;;;;9.02;7.18;;;12.60;92.80;;;;;;5032489;28;20025;-31
2023/10/27 11:21:19;;;;;;;7.68;6.47;;;12.60;92.80;;;;;;5032134;28;20032;-29
2023/10/27 11:23:47;;;;;;;8.43;6.65;;;12.60;92.80;;;;;;5032287;28;20036;-28
2023/10/27 11:26:14;;;;;;;7.60;6.80;;;12.60;92.80;;;;;;5032270;28;20025;-29
2023/10/27 11:28:41;;;;;;;7.47;6.45;;;12.60;92.80;;;;;;5032568;28;20060;-29
2023/10/27 11:31:17;;;;;;;7.68;6.65;;;12.60;92.80;;;;;;5032389;28;20025;-30
2023/10/27 11:33:58;;;;;;;6.72;6.03;;;12.60;92.80;;;;;;5032776;28;20494;-28
2023/10/27 11:36:25;;;;;;;8.35;6.47;;;12.60;92.80;;;;;;5032767;28;20022;-29
2023/10/27 11:38:51;;;;;;;8.10;6.65;;;12.60;92.90;;;;;;5032536;28;20421;-30
2023/10/27 11:41:20;;;;;;;7.80;7.00;;;12.70;93.20;;;;;;5032184;28;20021;-28
2023/10/27 11:43:46;;;;;;;8.65;6.95;;;12.70;92.90;;;;;;5030574;28;20103;-28
2023/10/27 11:46:19;;;;;;;7.93;6.95;;;12.70;92.90;;;;;;5034020;28;20022;-31
2023/10/27 11:48:45;;;;;;;;;;;12.70;92.90;;;;;;5037237;28;20413;-30
2023/10/27 11:51:12;;;;;;;8.20;6.50;;;12.70;92.90;;;;;;5036309;28;19909;-35
2023/10/27 11:53:43;;;;;;;6.90;5.97;;;12.70;92.90;;;;;;5036263;28;20026;-35
2023/10/27 11:56:09;;;;;;;7.45;6.40;;;12.70;92.90;;;;;;5036504;28;20018;-34
2023/10/27 11:58:34;;;;;;;7.43;6.45;;;12.70;92.90;;;;;;5036252;28;20023;-30
2023/10/27 12:01:00;;;;;;;7.30;6.30;;;12.70;92.90;;;;;;5034721;28;20037;-31
2023/10/27 12:03:25;;;;;;;8.00;6.78;;;12.70;92.90;;;;;;5036473;28;20026;-29
2023/10/27 12:05:53;;;;;;;7.55;6.30;;;12.80;92.90;;;;;;5036017;28;20101;-31
2023/10/27 12:08:20;;;;;;;7.15;6.10;;;12.70;92.90;;;;;;5036206;28;20034;-31
2023/10/27 12:10:48;;;;;;;7.70;6.45;;;12.70;92.90;;;;;;5036183;28;20029;-30
2023/10/27 12:13:14;;;;;;;6.28;5.50;;;12.80;92.90;;;;;;5035869;28;20022;-30
2023/10/27 12:15:40;;;;;;;5.20;4.70;;;12.80;92.90;;;;;;5036259;28;20105;-30
2023/10/27 12:18:06;;;;;;;5.53;4.57;;;12.80;92.90;;;;;;5035679;28;20490;-29
2023/10/27 12:20:32;;;;;;;5.18;4.68;;;12.80;92.90;;;;;;5035385;28;20025;-29
2023/10/27 12:22:58;;;;;;;5.43;4.93;;;12.80;92.80;;;;;;5035700;28;20028;-29
2023/10/27 12:25:23;;;;;;;5.18;4.53;;;12.80;92.80;;;;;;5035638;28;20022;-29
2023/10/27 12:27:49;;;;;;;5.28;4.78;;;12.90;92.90;;;;;;5035509;28;20456;-30
2023/10/27 12:30:15;;;;;;;4.95;4.45;;;12.80;92.80;;;;;;5035041;28;20429;-29
2023/10/27 12:32:42;;;;;;;5.22;4.72;;;12.80;92.80;;;;;;5035501;28;20030;-29
2023/10/27 12:35:08;;;;;;;6.05;4.60;;;12.80;92.90;;;;;;5035507;28;20018;-31
2023/10/27 12:37:34;;;;;;;6.38;4.68;;;12.80;92.90;;;;;;5035598;28;20480;-33